Latest Coastal Weather Observations for Tasman Island

IDT60701

Issued at 12:22 pm EDT Wednesday 25 January 2017 (issued every 10 minutes, with the page automatically refreshed every 10 minutes)

About coastal observations | Map of coastal stations | Coastal observations for TAS | Marine services | Other Formats
Station Details ID: 094155 Name: TASMAN ISLAND Lat: -43.24 Lon: 148.00 Height: 240.0 m
Data from the previous 72 hours. | See also: Recent months at Tasman Island
Date/Time
EDT
Temp
°C
Wind Pressure Rain since
9am
mm
Weather Cloud Vis
km
Sea
Height
m
Swell
Dir  Spd
kts
Gust
kts
hPa Trend Height
m
Period
s
Dir
25/12:00pm 18.8 W 6 12 1014.7 - 0.0 - - - - - - -
25/11:30am 18.3 WNW 6 10 1014.5 - 0.0 - - - - - - -
25/11:00am 16.9 W 6 10 1014.6 - 0.0 - - - - - - -
25/10:30am 16.3 WNW 10 17 1014.8 - 0.0 - - - - - - -
25/10:00am 15.9 NW 11 17 1014.9 - 0.0 - - - - - - -
25/09:30am 15.1 NW 13 18 1014.9 - 0.0 - - - - - - -
25/09:00am 14.1 WNW 16 22 1015.0 - 0.4 - - - - - - -
25/08:30am 13.4 NW 14 22 1015.1 - 0.4 - - - - - - -
25/08:00am 13.0 NW 13 20 1015.1 - 0.4 - - - - - - -
25/07:30am 12.6 NW 12 21 1014.8 - 0.4 - - - - - - -
25/07:00am 12.1 NW 15 23 1014.7 - 0.4 - - - - - - -
25/06:30am 11.6 NW 14 21 1014.6 - 0.4 - - - - - - -
25/06:00am 11.4 NW 13 20 1014.6 - 0.4 - - - - - - -
25/05:30am 11.5 WNW 11 17 1014.4 - 0.4 - - - - - - -
25/05:00am 11.8 NW 16 24 1014.2 - 0.4 - - - - - - -
25/04:30am 11.6 NW 14 23 1014.3 - 0.4 - - - - - - -
25/04:00am 11.6 WNW 13 20 1014.4 - 0.4 - - - - - - -
25/03:30am 11.6 NW 14 21 1014.4 - 0.4 - - - - - - -
25/03:00am 11.8 NW 13 22 1014.6 - 0.4 - - - - - - -
25/02:38am 12.0 NW 15 25 1014.8 - 0.4 - - - - - - -
25/02:30am 12.0 WNW 11 20 1014.8 - 0.4 - - - - - - -
25/02:00am 12.2 WNW 16 27 1014.6 - 0.4 - - - - - - -
25/01:38am 12.2 NW 15 25 1014.9 - 0.4 - - - - - - -
25/01:30am 12.0 WNW 13 23 1014.9 - 0.4 - - - - - - -
25/01:00am 12.3 NW 16 26 1015.0 - 0.4 - - - - - - -
25/12:48am 12.2 NW 15 26 1014.8 - 0.4 - - - - - - -
25/12:30am 12.2 NW 9 17 1014.7 - 0.4 - - - - - - -
25/12:00am 12.1 WNW 9 19 1014.4 - 0.4 - - - - - - -
 
Date/Time
EDT
Temp
°C
Wind Pressure Rain since
9am
mm
Weather Cloud Vis
km
Sea
Height
m
Swell
Dir  Spd
kts
Gust
kts
hPa Trend Height
m
Period
s
Dir
24/11:30pm 12.2 N 5 11 1014.6 - 0.4 - - - - - - -
24/11:00pm 12.6 W 7 27 1013.9 - 0.4 - - - - - - -
24/10:30pm 12.6 ESE 5 17 1014.1 - 0.4 - - - - - - -
24/10:00pm 12.8 W 5 17 1013.7 - 0.4 - - - - - - -
24/09:30pm 12.8 SW 6 25 1013.0 - 0.4 - - - - - - -
24/09:00pm 12.9 W 7 21 1012.2 - 0.4 - - - - - - -
24/08:30pm 12.9 WNW 7 24 1011.3 - 0.4 - - - - - - -
24/08:00pm 13.3 WSW 8 26 1010.6 - 0.4 - - - - - - -
24/07:30pm 13.5 NW 8 24 1010.2 - 0.4 - - - - - - -
24/07:09pm 13.6 WSW 12 32 1009.8 - 0.4 - - - - - - -
24/07:00pm 13.8 WNW 8 29 1009.8 - 0.4 - - - - - - -
24/06:30pm 14.0 WSW 14 24 1009.3 - 0.4 - - - - - - -
24/06:11pm 14.0 WSW 15 29 1008.9 - 0.4 - - - - - - -
24/06:00pm 14.2 WSW 9 29 1008.9 - 0.4 - - - - - - -
24/05:30pm 14.6 W 8 27 1008.2 - 0.4 - - - - - - -
24/05:00pm 14.1 WSW 13 29 1008.0 - 0.4 - - - - - - -
24/04:55pm 14.0 WSW 15 29 1007.7 - 0.4 - - - - - - -
24/04:30pm 14.4 WSW 12 29 1007.2 - 0.4 - - - - - - -
24/04:00pm 14.3 WSW 16 32 1006.3 - 0.4 - - - - - - -
24/03:30pm 14.8 WSW 16 37 1006.2 - 0.4 - - - - - - -
24/03:00pm 13.9 WSW 16 33 1005.6 - 0.4 - - - - - - -
24/02:30pm 14.7 WSW 18 34 1004.7 - 0.4 - - - - - - -
24/02:00pm 14.0 WSW 15 34 1004.2 - 0.4 - - - - - - -
24/01:30pm 13.9 WSW 15 41 1003.7 - 0.4 - - - - - - -
24/01:14pm 13.6 WSW 20 49 1002.7 - 0.4 - - - - - - -
24/01:00pm 14.4 WSW 13 34 1002.6 - 0.4 - - - - - - -
24/12:40pm 14.1 WSW 11 37 1002.2 - 0.4 - - - - - - -
24/12:30pm 14.2 W 10 36 1001.9 - 0.4 - - - - - - -
24/12:09pm 12.7 SW 15 42 1001.5 - 0.4 - - - - - - -
24/12:00pm 13.7 W 9 26 1001.2 - 0.4 Recent precip. - - - - - -
24/11:30am 12.3 WNW 9 32 1001.0 - 0.4 - - - - - - -
24/11:00am 11.8 SSW 9 37 1000.2 - 0.2 - - - - - - -
24/10:30am 13.2 NNW 8 27 999.5 - 0.0 - - - - - - -
24/10:00am 13.3 NNE 7 19 998.8 - 0.0 - - - - - - -
24/09:30am 13.1 WSW 15 36 997.6 - 0.0 - - - - - - -
24/09:00am 12.8 W 16 40 997.1 - 1.6 Recent precip. - - - - - -
24/08:33am 12.5 WSW 15 42 996.8 - 1.6 - - - - - - -
24/08:30am 12.5 WSW 15 42 996.7 - 1.6 - - - - - - -
24/08:12am 12.2 WSW 13 35 995.6 - 1.6 - - - - - - -
24/08:00am 13.7 W 10 31 994.8 - 1.2 - - - - - - -
24/07:30am 13.8 NW 8 31 993.9 - 1.2 - - - - - - -
24/07:00am 13.9 NNW 9 31 992.6 - 1.2 - - - - - - -
24/06:30am 16.0 WNW 13 54 991.0 - 1.2 - - - - - - -
24/06:23am 16.1 WNW 14 54 990.5 - 1.2 - - - - - - -
24/06:00am 16.5 NW 11 31 990.4 - 1.2 Recent precip. - - - - - -
24/05:30am 17.0 W 16 42 990.1 - 0.6 - - - - - - -
24/05:29am 16.8 W 15 42 990.1 - 0.6 - - - - - - -
24/05:00am 16.3 WSW 11 18 990.1 - 0.2 - - - - - - -
24/04:43am 18.6 W 14 29 989.5 - 0.0 - - - - - - -
24/04:30am 21.0 WNW 24 35 988.8 - 0.0 - - - - - - -
24/04:00am 20.5 NW 23 33 988.6 - 0.0 - - - - - - -
24/03:30am 20.4 NNW 20 33 989.3 - 0.0 - - - - - - -
24/03:01am 20.5 N 16 26 990.0 - 0.0 - - - - - - -
24/03:00am 20.5 NNW 16 23 989.9 - 0.0 - - - - - - -
24/02:30am 20.1 N 16 22 991.0 - 0.0 - - - - - - -
24/02:00am 19.5 N 20 25 991.7 - 0.0 - - - - - - -
24/01:30am 19.8 N 20 28 992.7 - 0.0 - - - - - - -
24/01:25am 20.1 N 20 28 992.7 - 0.0 - - - - - - -
24/01:00am 20.4 N 12 18 993.8 - 0.0 - - - - - - -
24/12:30am 18.7 NNW 7 11 994.7 - 0.0 - - - - - - -
24/12:00am 17.7 WNW 7 10 995.2 - 0.0 - - - - - - -
 
Date/Time
EDT
Temp
°C
Wind Pressure Rain since
9am
mm
Weather Cloud Vis
km
Sea
Height
m
Swell
Dir  Spd
kts
Gust
kts
hPa Trend Height
m
Period
s
Dir
23/11:30pm 17.7 WNW 8 11 995.8 - 0.0 - - - - - - -
23/11:00pm 18.9 NW 6 9 996.3 - 0.0 - - - - - - -
23/10:30pm 20.1 N 10 12 996.5 - 0.0 - - - - - - -
23/10:00pm 19.1 WNW 8 10 997.2 - 0.0 - - - - - - -
23/09:30pm 19.2 W 8 12 997.8 - 0.0 - - - - - - -
23/09:00pm 19.4 WNW 7 9 997.8 - 0.0 - - - - - - -
23/08:37pm 19.8 N 17 24 997.8 - 0.0 - - - - - - -
23/08:30pm 20.5 N 21 27 997.5 - 0.0 - - - - - - -
23/08:00pm 17.2 NNE 17 24 997.7 - 0.0 - - - - - - -
23/07:30pm 17.4 NNE 20 25 998.3 - 0.0 - - - - - - -
23/07:00pm 17.4 NNE 22 26 998.5 - 0.0 - - - - - - -
23/06:30pm 17.6 NNE 22 27 999.2 - 0.0 - - - - - - -
23/06:00pm 17.5 NNE 22 28 999.8 - 0.0 - - - - - - -
23/05:30pm 17.6 NNE 23 29 1000.3 - 0.0 - - - - - - -
23/05:00pm 17.4 NNE 21 28 1000.7 - 0.0 - - - - - - -
23/04:30pm 17.9 NNE 23 28 1001.3 - 0.0 - - - - - - -
23/04:00pm 18.5 NE 17 25 1002.0 - 0.0 - - - - - - -
23/03:38pm 18.2 NE 15 27 1002.5 - 0.0 - - - - - - -
23/03:30pm 18.1 NE 15 23 1002.7 - 0.0 - - - - - - -
23/03:00pm 18.3 NE 14 22 1003.4 - 0.0 - - - - - - -
23/02:30pm 18.2 NNE 16 23 1004.0 - 0.0 - - - - - - -
23/02:00pm 18.1 NNE 16 24 1004.4 - 0.0 - - - - - - -
23/01:30pm 17.0 NNE 18 26 1004.8 - 0.0 - - - - - - -
23/01:00pm 17.1 NNE 19 25 1005.4 - 0.0 - - - - - - -
23/12:30pm 16.9 NNE 15 21 1006.0 - 0.0 - - - - - - -
23/12:00pm 16.8 NNE 16 21 1006.5 - 0.0 - - - - - - -
23/11:30am 17.5 NNE 12 20 1006.6 - 0.0 - - - - - - -
23/11:00am 18.1 NNE 13 17 1007.2 - 0.0 - - - - - - -
23/10:30am 16.9 NNE 14 19 1007.4 - 0.0 - - - - - - -
23/10:00am 16.8 NNE 14 19 1007.7 - 0.0 - - - - - - -
23/09:30am 16.8 NNE 15 22 1008.0 - 0.0 - - - - - - -
23/09:00am 16.4 NNE 14 20 1008.3 - 0.0 - - - - - - -
23/08:30am 15.9 NNE 14 19 1008.6 - 0.0 - - - - - - -
23/08:00am 15.4 NNE 13 17 1008.6 - 0.0 - - - - - - -
23/07:30am 15.4 NE 7 11 1008.8 - 0.0 - - - - - - -
23/07:00am 15.0 NNE 6 9 1009.0 - 0.0 - - - - - - -
23/06:30am 14.9 NNE 4 8 1009.0 - 0.0 - - - - - - -
23/06:00am 15.0 NE 4 8 1009.0 - 0.0 - - - - - - -
23/05:30am 15.0 NE 4 9 1008.8 - 0.0 - - - - - - -
23/05:00am 15.0 ENE 4 7 1008.8 - 0.0 - - - - - - -
23/04:30am 14.9 ENE 4 8 1009.0 - 0.0 - - - - - - -
23/04:00am 14.8 ENE 2 7 1009.2 - 0.0 - - - - - - -
23/03:30am 14.7 ESE 4 9 1009.4 - 0.0 - - - - - - -
23/03:00am 14.6 ESE 5 9 1009.7 - 0.0 - - - - - - -
23/02:30am 14.4 ESE 4 9 1009.9 - 0.0 - - - - - - -
23/02:00am 14.3 ESE 4 9 1010.3 - 0.0 - - - - - - -
23/01:30am 14.3 E 4 11 1010.7 - 0.0 - - - - - - -
23/01:00am 14.3 E 5 10 1011.1 - 0.0 - - - - - - -
23/12:30am 14.0 E 2 8 1011.5 - 0.0 - - - - - - -
23/12:00am 13.8 E 1 4 1011.8 - 0.0 - - - - - - -
 
Date/Time
EDT
Temp
°C
Wind Pressure Rain since
9am
mm
Weather Cloud Vis
km
Sea
Height
m
Swell
Dir  Spd
kts
Gust
kts
hPa Trend Height
m
Period
s
Dir
22/11:30pm 13.9 E 1 3 1012.0 - 0.0 - - - - - - -
22/11:00pm 13.7 SE 3 4 1012.3 - 0.0 - - - - - - -
22/10:30pm 13.8 SSE 4 5 1012.7 - 0.0 - - - - - - -
22/10:00pm 14.1 SSE 5 7 1012.8 - 0.0 - - - - - - -
22/09:30pm 14.1 SE 4 7 1012.7 - 0.0 - - - - - - -
22/09:00pm 14.3 SE 4 8 1012.6 - 0.0 - - - - - - -
22/08:30pm 14.7 S 3 8 1012.4 - 0.0 - - - - - - -
22/08:00pm 15.3 S 3 8 1012.5 - 0.0 - - - - - - -
22/07:30pm 15.6 SW 3 7 1012.7 - 0.0 - - - - - - -
22/07:00pm 15.7 SSE 3 9 1012.6 - 0.0 - - - - - - -
22/06:30pm 16.1 ESE 3 9 1012.5 - 0.0 - - - - - - -
22/06:00pm 16.3 SE 4 10 1012.5 - 0.0 - - - - - - -
22/05:30pm 16.4 SE 3 9 1012.5 - 0.0 - - - - - - -
22/05:00pm 16.5 SE 4 12 1012.7 - 0.0 - - - - - - -
22/04:30pm 17.1 SSE 3 8 1012.8 - 0.0 - - - - - - -
22/04:00pm 17.2 SSE 4 10 1013.0 - 0.0 - - - - - - -
22/03:30pm 17.8 SSE 5 11 1013.0 - 0.0 - - - - - - -
22/03:00pm 17.8 SE 5 9 1013.0 - 0.0 - - - - - - -
22/02:30pm 17.4 SE 4 10 1013.0 - 0.0 - - - - - - -
22/02:00pm 17.4 ESE 6 10 1013.1 - 0.0 - - - - - - -
22/01:30pm 17.6 SE 5 8 1013.2 - 0.0 - - - - - - -
22/01:00pm 18.3 SSE 6 9 1013.4 - 0.0 - - - - - - -
22/12:30pm 17.0 SSE 7 9 1013.4 - 0.0 - - - - - - -

Other Formats:

Comma delimited format used in spreadsheet applications
http://www.bom.gov.au/fwo/IDT60701/IDT60701.95986.axf

JavaScript Object Notation format (JSON) in row-major order
http://www.bom.gov.au/fwo/IDT60701/IDT60701.95986.json